createdAt,value
2023-05-01T00:02:02.022Z,100.00
2023-05-01T00:04:29.074Z,100.00
2023-05-01T00:06:55.741Z,100.00
2023-05-01T00:09:22.436Z,100.00
2023-05-01T00:11:49.074Z,100.00
2023-05-01T00:14:15.763Z,100.00
2023-05-01T00:16:42.847Z,100.00
2023-05-01T00:19:09.568Z,100.00
2023-05-01T00:21:36.181Z,100.00
2023-05-01T00:24:02.854Z,100.00
2023-05-01T00:26:31.518Z,100.00
2023-05-01T00:28:58.617Z,100.00
2023-05-01T00:31:25.973Z,100.00
2023-05-01T00:33:54.339Z,100.00
2023-05-01T00:36:20.967Z,100.00
2023-05-01T00:38:47.877Z,100.00
2023-05-01T00:41:14.640Z,100.00
2023-05-01T00:43:41.355Z,100.00
2023-05-01T00:46:08.640Z,100.00
2023-05-01T00:48:36.047Z,100.00
2023-05-01T00:51:05.140Z,100.00
2023-05-01T00:53:33.610Z,100.00
2023-05-01T00:56:01.004Z,100.00
2023-05-01T00:58:28.191Z,100.00
2023-05-01T01:00:55.484Z,100.00
2023-05-01T01:03:22.159Z,100.00
2023-05-01T01:05:53.839Z,100.00
2023-05-01T01:08:28.137Z,100.00
2023-05-01T01:11:21.802Z,100.00
2023-05-01T01:14:06.823Z,100.00
2023-05-01T01:16:46.652Z,100.00
2023-05-01T01:19:40.426Z,100.00
2023-05-01T01:22:11.952Z,100.00
2023-05-01T01:24:53.946Z,100.00
2023-05-01T01:27:31.292Z,100.00
2023-05-01T01:30:22.918Z,100.00
2023-05-01T01:33:18.244Z,100.00
2023-05-01T01:35:53.851Z,100.00
2023-05-01T01:38:23.992Z,100.00
2023-05-01T01:41:01.304Z,100.00
2023-05-01T01:43:31.709Z,100.00
2023-05-01T01:46:02.267Z,100.00
2023-05-01T01:48:36.440Z,100.00
2023-05-01T01:51:09.261Z,100.00
2023-05-01T01:53:37.897Z,100.00
2023-05-01T01:56:06.352Z,100.00
2023-05-01T01:58:35.921Z,100.00
2023-05-01T02:01:03.917Z,100.00
2023-05-01T02:03:34.054Z,100.00
2023-05-01T02:06:01.582Z,100.00
2023-05-01T02:08:30.905Z,100.00
2023-05-01T02:11:01.844Z,100.00
2023-05-01T02:13:30.425Z,100.00
2023-05-01T02:16:03.182Z,100.00
2023-05-01T02:18:31.251Z,100.00
2023-05-01T02:21:00.186Z,100.00
2023-05-01T02:23:31.036Z,100.00
2023-05-01T02:26:00.915Z,100.00
2023-05-01T02:28:29.961Z,100.00
2023-05-01T02:30:57.477Z,100.00
2023-05-01T02:33:24.193Z,100.00
2023-05-01T02:35:50.800Z,100.00
2023-05-01T02:38:18.654Z,100.00
2023-05-01T02:40:50.681Z,100.00
2023-05-01T02:43:20.480Z,100.00
2023-05-01T02:45:48.238Z,100.00
2023-05-01T02:48:18.906Z,100.00
2023-05-01T02:50:46.600Z,100.00
2023-05-01T02:53:13.638Z,100.00
2023-05-01T02:55:49.056Z,100.00
2023-05-01T02:58:17.099Z,100.00
2023-05-01T03:00:44.847Z,100.00
2023-05-01T03:03:12.262Z,100.00
2023-05-01T03:05:39.669Z,100.00
2023-05-01T03:08:06.850Z,100.00
2023-05-01T03:10:34.377Z,100.00
2023-05-01T03:13:01.231Z,100.00
2023-05-01T03:15:27.882Z,100.00
2023-05-01T03:17:54.585Z,100.00
2023-05-01T03:20:21.687Z,100.00
2023-05-01T03:22:48.363Z,100.00
2023-05-01T03:25:15.513Z,100.00
2023-05-01T03:27:42.571Z,100.00
2023-05-01T03:30:10.634Z,100.00
2023-05-01T03:32:40.673Z,100.00
2023-05-01T03:35:13.648Z,100.00
2023-05-01T03:37:40.427Z,100.00
2023-05-01T03:40:07.942Z,100.00
2023-05-01T03:43:10.014Z,100.00
2023-05-01T03:45:37.075Z,100.00
2023-05-01T03:48:03.958Z,100.00
2023-05-01T03:50:32.097Z,100.00
2023-05-01T03:52:59.008Z,100.00
2023-05-01T03:55:25.666Z,100.00
2023-05-01T03:57:52.878Z,100.00
2023-05-01T04:00:20.342Z,100.00
2023-05-01T04:02:47.636Z,100.00
2023-05-01T04:05:19.185Z,100.00
2023-05-01T04:07:50.685Z,100.00
2023-05-01T04:10:17.653Z,100.00
2023-05-01T04:12:52.316Z,100.00
2023-05-01T04:15:19.159Z,100.00
2023-05-01T04:17:46.228Z,100.00
2023-05-01T04:20:12.961Z,100.00
2023-05-01T04:22:40.274Z,100.00
2023-05-01T04:25:09.042Z,100.00
2023-05-01T04:27:35.824Z,100.00
2023-05-01T04:30:02.498Z,100.00
2023-05-01T04:32:30.976Z,100.00
2023-05-01T04:34:57.984Z,100.00
2023-05-01T04:37:24.751Z,100.00
2023-05-01T04:39:51.432Z,100.00
2023-05-01T04:42:20.607Z,100.00
2023-05-01T04:44:47.417Z,100.00
2023-05-01T04:47:14.674Z,100.00
2023-05-01T04:49:41.329Z,100.00
2023-05-01T04:52:08.034Z,100.00
2023-05-01T04:54:54.953Z,100.00
2023-05-01T04:57:23.793Z,100.00
2023-05-01T04:59:50.676Z,100.00
2023-05-01T05:02:17.400Z,100.00
2023-05-01T05:04:44.133Z,100.00
2023-05-01T05:07:10.919Z,100.00
2023-05-01T05:10:00.776Z,100.00
2023-05-01T05:12:27.816Z,100.00
2023-05-01T05:14:54.535Z,100.00
2023-05-01T05:17:21.425Z,100.00
2023-05-01T05:19:48.224Z,100.00
2023-05-01T05:22:15.727Z,100.00
2023-05-01T05:25:04.473Z,100.00
2023-05-01T05:27:36.455Z,100.00
2023-05-01T05:30:07.260Z,100.00
2023-05-01T05:32:35.482Z,100.00
2023-05-01T05:35:03.075Z,100.00
2023-05-01T05:37:29.968Z,100.00
2023-05-01T05:39:57.081Z,100.00
2023-05-01T05:42:24.260Z,100.00
2023-05-01T05:44:51.029Z,100.00
2023-05-01T05:47:17.731Z,100.00
2023-05-01T05:49:44.393Z,100.00
2023-05-01T05:52:11.165Z,100.00
2023-05-01T05:54:39.022Z,100.00
2023-05-01T05:57:05.787Z,100.00
2023-05-01T05:59:33.318Z,100.00
2023-05-01T06:02:00.476Z,100.00
2023-05-01T06:04:27.247Z,100.00
2023-05-01T06:06:54.511Z,100.00
2023-05-01T06:09:21.620Z,100.00
2023-05-01T06:11:48.353Z,100.00
2023-05-01T06:14:16.670Z,100.00
2023-05-01T06:16:44.152Z,100.00
2023-05-01T06:19:12.164Z,100.00
2023-05-01T06:21:39.739Z,100.00
2023-05-01T06:24:06.697Z,100.00
2023-05-01T06:26:41.838Z,97.68
2023-05-01T06:29:08.538Z,97.34
2023-05-01T06:31:35.406Z,96.82
2023-05-01T06:34:02.197Z,94.35
2023-05-01T06:36:34.991Z,93.39
2023-05-01T06:39:01.980Z,92.08
2023-05-01T06:41:30.532Z,89.63
2023-05-01T06:43:58.572Z,89.26
2023-05-01T06:46:26.544Z,88.09
2023-05-01T06:48:53.275Z,87.38
2023-05-01T06:51:20.033Z,86.05
2023-05-01T06:53:46.709Z,84.13
2023-05-01T06:56:13.389Z,83.72
2023-05-01T06:58:40.139Z,83.28
2023-05-01T07:01:07.945Z,82.69
2023-05-01T07:03:34.614Z,82.31
2023-05-01T07:06:01.360Z,82.17
2023-05-01T07:08:28.340Z,82.17
2023-05-01T07:10:55.063Z,82.48
2023-05-01T07:13:21.760Z,83.21
2023-05-01T07:15:49.154Z,83.34
2023-05-01T07:18:17.140Z,84.09
2023-05-01T07:20:43.903Z,84.84
2023-05-01T07:23:10.608Z,85.11
2023-05-01T07:25:44.453Z,86.32
2023-05-01T07:28:11.280Z,85.88
2023-05-01T07:30:37.934Z,86.20
2023-05-01T07:33:05.999Z,85.72
2023-05-01T07:35:33.040Z,85.39
2023-05-01T07:37:59.754Z,84.91
2023-05-01T07:40:26.393Z,86.20
2023-05-01T07:42:54.581Z,85.89
2023-05-01T07:45:21.459Z,87.25
2023-05-01T07:47:48.164Z,89.26
2023-05-01T07:50:14.889Z,85.64
2023-05-01T07:52:41.552Z,85.22
2023-05-01T07:55:08.912Z,83.25
2023-05-01T07:57:36.263Z,81.58
2023-05-01T08:00:03.181Z,80.16
2023-05-01T08:02:41.163Z,78.56
2023-05-01T08:05:08.375Z,78.28
2023-05-01T08:07:35.079Z,77.72
2023-05-01T08:10:02.085Z,76.47
2023-05-01T08:12:29.706Z,75.79
2023-05-01T08:14:56.367Z,74.05
2023-05-01T08:17:23.005Z,71.29
2023-05-01T08:19:50.383Z,69.83
2023-05-01T08:22:17.058Z,68.74
2023-05-01T08:24:44.106Z,68.27
2023-05-01T08:27:10.883Z,68.05
2023-05-01T08:29:37.534Z,67.92
2023-05-01T08:32:04.149Z,67.52
2023-05-01T08:34:31.051Z,65.75
2023-05-01T08:36:59.570Z,65.74
2023-05-01T08:39:26.303Z,66.12
2023-05-01T08:41:53.167Z,65.52
2023-05-01T08:44:20.791Z,67.13
2023-05-01T08:47:00.526Z,65.57
2023-05-01T08:49:27.536Z,64.80
2023-05-01T08:51:57.037Z,65.20
2023-05-01T08:54:24.501Z,64.26
2023-05-01T08:56:51.844Z,65.79
2023-05-01T08:59:19.551Z,64.30
2023-05-01T09:01:47.328Z,64.16
2023-05-01T09:04:14.868Z,64.13
2023-05-01T09:06:41.795Z,64.66
2023-05-01T09:09:08.483Z,64.34
2023-05-01T09:11:36.748Z,64.39
2023-05-01T09:14:05.670Z,64.92
2023-05-01T09:16:32.917Z,64.48
2023-05-01T09:18:59.804Z,63.30
2023-05-01T09:21:29.255Z,62.81
2023-05-01T09:23:56.252Z,63.53
2023-05-01T09:26:23.017Z,63.04
2023-05-01T09:28:51.783Z,62.29
2023-05-01T09:31:22.944Z,62.05
2023-05-01T09:33:55.061Z,60.59
2023-05-01T09:36:23.106Z,61.22
2023-05-01T09:38:49.830Z,60.53
2023-05-01T09:41:16.883Z,59.75
2023-05-01T09:43:50.426Z,60.40
2023-05-01T09:46:17.385Z,59.67
2023-05-01T09:48:55.185Z,59.82
2023-05-01T09:51:22.645Z,59.69
2023-05-01T09:53:49.969Z,58.86
2023-05-01T09:56:17.415Z,59.93
2023-05-01T09:58:44.584Z,59.59
2023-05-01T10:01:11.464Z,60.55
2023-05-01T10:03:38.431Z,59.57
2023-05-01T10:06:05.630Z,58.88
2023-05-01T10:08:45.994Z,60.01
2023-05-01T10:11:12.817Z,58.28
2023-05-01T10:13:39.557Z,58.30
2023-05-01T10:16:08.650Z,58.56
2023-05-01T10:18:35.970Z,59.90
2023-05-01T10:21:04.192Z,58.51
2023-05-01T10:23:31.137Z,59.14
2023-05-01T10:25:59.439Z,58.32
2023-05-01T10:28:28.860Z,57.75
2023-05-01T10:30:56.383Z,57.99
2023-05-01T10:33:23.547Z,57.97
2023-05-01T10:35:56.853Z,57.36
2023-05-01T10:38:27.123Z,58.07
2023-05-01T10:40:53.795Z,58.67
2023-05-01T10:43:25.794Z,58.38
2023-05-01T10:45:53.705Z,58.24
2023-05-01T10:48:39.142Z,58.14
2023-05-01T10:51:27.812Z,60.48
2023-05-01T10:54:13.929Z,57.90
2023-05-01T10:56:43.105Z,59.07
2023-05-01T10:59:10.605Z,58.30
2023-05-01T11:01:37.771Z,60.10
2023-05-01T11:04:24.591Z,59.96
2023-05-01T11:07:10.938Z,57.40
2023-05-01T11:09:41.335Z,57.55
2023-05-01T11:12:09.497Z,58.81
2023-05-01T11:14:54.621Z,56.05
2023-05-01T11:17:39.939Z,56.48
2023-05-01T11:20:11.432Z,55.86
2023-05-01T11:22:42.811Z,54.72
2023-05-01T11:25:27.432Z,54.41
2023-05-01T11:27:56.706Z,55.08
2023-05-01T11:30:23.358Z,55.01
2023-05-01T11:32:51.132Z,54.40
2023-05-01T11:35:19.061Z,54.33
2023-05-01T11:37:46.250Z,54.34
2023-05-01T11:40:45.396Z,56.30
2023-05-01T11:43:12.784Z,55.30
2023-05-01T11:45:41.482Z,55.26
2023-05-01T11:48:16.478Z,56.02
2023-05-01T11:50:43.325Z,57.23
2023-05-01T11:53:16.003Z,56.25
2023-05-01T11:55:42.953Z,54.95
2023-05-01T11:58:09.591Z,53.90
2023-05-01T12:00:38.149Z,54.22
2023-05-01T12:03:06.861Z,53.95
2023-05-01T12:05:38.188Z,54.19
2023-05-01T12:08:20.581Z,52.93
2023-05-01T12:10:50.469Z,53.08
2023-05-01T12:13:17.195Z,53.38
2023-05-01T12:15:46.175Z,52.21
2023-05-01T12:18:13.980Z,52.43
2023-05-01T12:20:46.264Z,52.11
2023-05-01T12:23:16.226Z,52.80
2023-05-01T12:25:43.937Z,51.86
2023-05-01T12:28:14.268Z,52.14
2023-05-01T12:30:42.144Z,52.44
2023-05-01T12:33:19.292Z,52.77
2023-05-01T12:35:47.850Z,51.91
2023-05-01T12:38:22.384Z,51.46
2023-05-01T12:40:53.941Z,51.07
2023-05-01T12:43:31.468Z,50.51
2023-05-01T12:45:58.754Z,50.54
2023-05-01T12:48:25.805Z,51.21
2023-05-01T12:50:55.592Z,51.08
2023-05-01T12:53:23.646Z,50.36
2023-05-01T12:55:52.193Z,50.10
2023-05-01T12:58:19.260Z,50.24
2023-05-01T13:00:49.905Z,50.55
2023-05-01T13:03:23.468Z,50.78
2023-05-01T13:05:58.318Z,50.72
2023-05-01T13:08:27.266Z,50.01
2023-05-01T13:10:57.081Z,49.97
2023-05-01T13:13:29.467Z,49.80
2023-05-01T13:16:06.211Z,48.82
2023-05-01T13:18:33.924Z,48.25
2023-05-01T13:21:08.764Z,47.89
2023-05-01T13:23:39.517Z,46.94
2023-05-01T13:26:07.604Z,46.78
2023-05-01T13:28:35.648Z,46.90
2023-05-01T13:31:02.585Z,47.24
2023-05-01T13:33:31.423Z,46.80
2023-05-01T13:35:58.260Z,47.40
2023-05-01T13:38:25.273Z,47.64
2023-05-01T13:40:51.903Z,47.91
2023-05-01T13:43:18.632Z,47.60
2023-05-01T13:45:47.329Z,47.75
2023-05-01T13:48:17.108Z,47.26
2023-05-01T13:50:43.810Z,45.79
2023-05-01T13:53:10.457Z,45.11
2023-05-01T13:55:40.124Z,43.28
2023-05-01T13:58:07.287Z,42.28
2023-05-01T14:00:34.270Z,42.92
2023-05-01T14:03:01.092Z,42.81
2023-05-01T14:05:30.655Z,43.99
2023-05-01T14:07:58.904Z,43.30
2023-05-01T14:10:29.872Z,44.31
2023-05-01T14:12:58.777Z,43.78
2023-05-01T14:15:25.692Z,44.63
2023-05-01T14:17:53.043Z,45.00
2023-05-01T14:20:19.936Z,45.12
2023-05-01T14:22:53.591Z,44.74
2023-05-01T14:25:31.610Z,44.57
2023-05-01T14:27:59.390Z,45.45
2023-05-01T14:30:40.212Z,46.07
2023-05-01T14:33:14.120Z,45.12
2023-05-01T14:35:51.527Z,45.64
2023-05-01T14:38:19.622Z,45.53
2023-05-01T14:40:46.511Z,45.83
2023-05-01T14:43:15.080Z,46.53
2023-05-01T14:45:45.404Z,46.40
2023-05-01T14:48:23.181Z,47.30
2023-05-01T14:50:51.021Z,47.55
2023-05-01T14:53:17.742Z,47.34
2023-05-01T14:55:44.548Z,47.54
2023-05-01T14:58:11.205Z,47.49
2023-05-01T15:00:37.877Z,47.23
2023-05-01T15:03:04.638Z,47.24
2023-05-01T15:05:31.456Z,47.39
2023-05-01T15:08:00.435Z,47.83
2023-05-01T15:10:27.080Z,48.82
2023-05-01T15:12:53.747Z,48.25
2023-05-01T15:15:20.688Z,48.41
2023-05-01T15:17:47.373Z,49.06
2023-05-01T15:20:14.067Z,49.45
2023-05-01T15:22:41.125Z,49.80
2023-05-01T15:25:09.937Z,49.93
2023-05-01T15:27:36.626Z,49.85
2023-05-01T15:30:05.267Z,49.32
2023-05-01T15:32:32.191Z,49.78
2023-05-01T15:34:59.190Z,49.73
2023-05-01T15:37:26.129Z,49.44
2023-05-01T15:39:52.852Z,49.58
2023-05-01T15:42:19.934Z,49.39
2023-05-01T15:44:47.736Z,49.37
2023-05-01T15:47:14.893Z,49.82
2023-05-01T15:49:41.608Z,49.53
2023-05-01T15:52:08.354Z,49.49
2023-05-01T15:54:35.324Z,50.39
2023-05-01T15:57:03.217Z,50.41
2023-05-01T15:59:30.607Z,50.42
2023-05-01T16:01:57.539Z,50.86
2023-05-01T16:04:24.168Z,51.68
2023-05-01T16:06:51.311Z,51.84
2023-05-01T16:09:18.998Z,52.06
2023-05-01T16:11:45.657Z,52.24
2023-05-01T16:14:12.765Z,52.28
2023-05-01T16:16:41.847Z,52.94
2023-05-01T16:19:08.716Z,53.25
2023-05-01T16:21:36.888Z,53.03
2023-05-01T16:24:03.837Z,53.23
2023-05-01T16:26:31.495Z,53.53
2023-05-01T16:29:05.349Z,54.33
2023-05-01T16:31:38.947Z,54.46
2023-05-01T16:34:07.186Z,54.84
2023-05-01T16:36:42.996Z,55.11
2023-05-01T16:39:14.605Z,54.88
2023-05-01T16:41:48.528Z,55.94
2023-05-01T16:44:16.622Z,56.01
2023-05-01T16:46:45.590Z,56.35
2023-05-01T16:49:13.704Z,56.31
2023-05-01T16:51:43.809Z,56.54
2023-05-01T16:54:10.851Z,57.09
2023-05-01T16:56:38.416Z,56.83
2023-05-01T16:59:05.097Z,57.46
2023-05-01T17:01:31.762Z,57.20
2023-05-01T17:03:58.572Z,57.64
2023-05-01T17:06:25.368Z,57.66
2023-05-01T17:08:52.249Z,58.52
2023-05-01T17:11:19.093Z,59.03
2023-05-01T17:13:45.822Z,59.45
2023-05-01T17:16:12.547Z,59.43
2023-05-01T17:18:39.227Z,59.72
2023-05-01T17:21:06.803Z,60.34
2023-05-01T17:23:33.452Z,60.91
2023-05-01T17:26:00.593Z,60.88
2023-05-01T17:28:27.317Z,60.66
2023-05-01T17:30:54.124Z,61.11
2023-05-01T17:33:21.149Z,61.17
2023-05-01T17:35:48.248Z,61.76
2023-05-01T17:38:14.889Z,62.88
2023-05-01T17:40:41.578Z,63.49
2023-05-01T17:43:08.222Z,63.53
2023-05-01T17:45:34.841Z,63.98
2023-05-01T17:48:01.779Z,64.71
2023-05-01T17:50:28.402Z,64.71
2023-05-01T17:52:55.062Z,65.25
2023-05-01T17:55:21.815Z,65.65
2023-05-01T17:57:48.558Z,66.51
2023-05-01T18:00:16.320Z,67.08
2023-05-01T18:02:44.881Z,67.65
2023-05-01T18:05:12.390Z,68.47
2023-05-01T18:07:39.052Z,68.19
2023-05-01T18:10:06.303Z,69.48
2023-05-01T18:12:33.350Z,70.28
2023-05-01T18:14:59.972Z,70.58
2023-05-01T18:17:26.833Z,71.52
2023-05-01T18:19:53.478Z,71.99
2023-05-01T18:22:20.270Z,72.91
2023-05-01T18:24:47.056Z,72.36
2023-05-01T18:27:14.459Z,72.57
2023-05-01T18:29:41.126Z,73.97
2023-05-01T18:32:09.366Z,74.77
2023-05-01T18:34:36.699Z,74.69
2023-05-01T18:37:03.341Z,74.91
2023-05-01T18:39:30.299Z,75.82
2023-05-01T18:41:56.872Z,75.46
2023-05-01T18:44:23.570Z,75.24
2023-05-01T18:46:50.246Z,75.64
2023-05-01T18:49:21.058Z,76.68
2023-05-01T18:51:48.641Z,76.49
2023-05-01T18:54:16.135Z,77.19
2023-05-01T18:56:43.062Z,77.92
2023-05-01T18:59:09.660Z,77.40
2023-05-01T19:01:37.089Z,77.22
2023-05-01T19:04:03.818Z,77.69
2023-05-01T19:06:31.368Z,78.31
2023-05-01T19:08:58.400Z,77.47
2023-05-01T19:11:30.272Z,78.00
2023-05-01T19:13:57.077Z,78.62
2023-05-01T19:16:24.715Z,79.49
2023-05-01T19:18:51.888Z,79.69
2023-05-01T19:21:18.556Z,79.86
2023-05-01T19:23:46.567Z,80.53
2023-05-01T19:26:13.797Z,81.53
2023-05-01T19:28:43.459Z,82.08
2023-05-01T19:31:12.429Z,82.80
2023-05-01T19:33:41.221Z,83.50
2023-05-01T19:36:07.811Z,83.52
2023-05-01T19:38:34.555Z,84.01
2023-05-01T19:41:01.367Z,84.77
2023-05-01T19:43:28.017Z,85.83
2023-05-01T19:45:54.782Z,86.57
2023-05-01T19:48:22.028Z,87.18
2023-05-01T19:50:51.100Z,87.80
2023-05-01T19:53:18.389Z,88.40
2023-05-01T19:55:47.183Z,89.56
2023-05-01T19:58:15.118Z,91.43
2023-05-01T20:00:42.033Z,93.88
2023-05-01T20:03:09.800Z,96.13
2023-05-01T20:05:37.317Z,99.51
2023-05-01T20:08:05.094Z,100.00
2023-05-01T20:10:31.800Z,100.00
2023-05-01T20:12:58.523Z,100.00
2023-05-01T20:15:25.849Z,100.00
2023-05-01T20:17:52.843Z,100.00
2023-05-01T20:20:20.100Z,100.00
2023-05-01T20:22:47.056Z,100.00
2023-05-01T20:25:13.847Z,100.00
2023-05-01T20:27:41.222Z,100.00
2023-05-01T20:30:12.743Z,100.00
2023-05-01T20:32:44.255Z,100.00
2023-05-01T20:35:11.644Z,100.00
2023-05-01T20:37:38.361Z,100.00
2023-05-01T20:40:06.421Z,100.00
2023-05-01T20:42:33.097Z,100.00
2023-05-01T20:44:59.751Z,100.00
2023-05-01T20:47:27.463Z,100.00
2023-05-01T20:49:54.620Z,100.00
2023-05-01T20:52:21.441Z,100.00
2023-05-01T20:54:48.075Z,100.00
2023-05-01T20:57:16.516Z,100.00
2023-05-01T20:59:49.999Z,100.00
2023-05-01T21:02:17.430Z,100.00
2023-05-01T21:04:46.212Z,100.00
2023-05-01T21:07:12.934Z,100.00
2023-05-01T21:09:48.975Z,100.00
2023-05-01T21:12:15.756Z,100.00
2023-05-01T21:14:42.437Z,100.00
2023-05-01T21:17:09.479Z,100.00
2023-05-01T21:19:46.721Z,100.00
2023-05-01T21:22:18.668Z,100.00
2023-05-01T21:24:45.573Z,100.00
2023-05-01T21:27:12.429Z,100.00
2023-05-01T21:29:40.817Z,100.00
2023-05-01T21:32:08.127Z,100.00
2023-05-01T21:34:35.007Z,100.00
2023-05-01T21:37:01.666Z,100.00
2023-05-01T21:39:28.427Z,100.00
2023-05-01T21:41:55.167Z,100.00
2023-05-01T21:44:22.776Z,100.00
2023-05-01T21:46:50.947Z,100.00
2023-05-01T21:49:23.060Z,100.00
2023-05-01T21:51:49.921Z,100.00
2023-05-01T21:54:16.705Z,100.00
2023-05-01T21:56:43.536Z,100.00
2023-05-01T21:59:10.329Z,100.00
2023-05-01T22:01:38.673Z,100.00
2023-05-01T22:04:07.107Z,100.00
2023-05-01T22:06:34.051Z,100.00
2023-05-01T22:09:00.842Z,100.00
2023-05-01T22:11:28.078Z,100.00
2023-05-01T22:13:54.791Z,100.00
2023-05-01T22:16:21.523Z,100.00
2023-05-01T22:18:49.751Z,100.00
2023-05-01T22:21:16.911Z,100.00
2023-05-01T22:23:43.554Z,100.00
2023-05-01T22:26:10.460Z,100.00
2023-05-01T22:28:37.147Z,100.00
2023-05-01T22:31:03.901Z,100.00
2023-05-01T22:33:30.661Z,100.00
2023-05-01T22:35:57.390Z,100.00
2023-05-01T22:38:24.048Z,100.00
2023-05-01T22:40:50.709Z,100.00
2023-05-01T22:43:17.414Z,100.00
2023-05-01T22:45:44.082Z,100.00
2023-05-01T22:48:10.883Z,100.00
2023-05-01T22:50:37.585Z,100.00
2023-05-01T22:53:04.284Z,100.00
2023-05-01T22:55:31.106Z,100.00
2023-05-01T22:57:57.769Z,100.00
2023-05-01T23:00:24.571Z,100.00
2023-05-01T23:02:51.520Z,100.00
2023-05-01T23:05:18.457Z,100.00
2023-05-01T23:07:45.188Z,100.00
2023-05-01T23:10:12.469Z,100.00
2023-05-01T23:12:43.806Z,100.00
2023-05-01T23:15:17.001Z,100.00
2023-05-01T23:17:44.237Z,100.00
2023-05-01T23:20:13.451Z,100.00
2023-05-01T23:22:40.626Z,100.00
2023-05-01T23:25:07.833Z,100.00
2023-05-01T23:27:36.177Z,100.00
2023-05-01T23:32:32.469Z,100.00
2023-05-01T23:35:10.152Z,100.00
2023-05-01T23:37:36.876Z,100.00
2023-05-01T23:40:04.333Z,100.00
2023-05-01T23:42:31.517Z,100.00
2023-05-01T23:44:58.200Z,100.00
2023-05-01T23:47:25.029Z,100.00
2023-05-01T23:49:52.035Z,100.00
2023-05-01T23:52:18.751Z,100.00
2023-05-01T23:54:45.392Z,100.00
2023-05-01T23:57:12.146Z,100.00
2023-05-01T23:59:38.836Z,100.00
